createdAt,value
2018-05-04T00:02:34.288Z,5.68
2018-05-04T00:07:37.571Z,5.57
2018-05-04T00:12:41.323Z,5.93
2018-05-04T00:17:44.557Z,5.37
2018-05-04T00:22:47.812Z,5.60
2018-05-04T00:27:51.078Z,5.10
2018-05-04T00:32:54.385Z,5.82
2018-05-04T00:37:57.667Z,6.28
2018-05-04T00:43:01.267Z,6.40
2018-05-04T00:48:04.476Z,6.37
2018-05-04T00:53:07.790Z,7.18
2018-05-04T00:58:11.260Z,6.55
2018-05-04T01:03:14.966Z,7.18
2018-05-04T01:08:20.433Z,7.68
2018-05-04T01:13:23.663Z,6.40
2018-05-04T01:18:26.930Z,7.30
2018-05-04T01:23:30.149Z,7.22
2018-05-04T01:28:34.895Z,7.68
2018-05-04T01:33:38.511Z,7.30
2018-05-04T01:38:42.143Z,7.85
2018-05-04T01:43:45.445Z,8.40
2018-05-04T01:48:48.669Z,7.90
2018-05-04T01:53:51.889Z,7.90
2018-05-04T01:58:55.227Z,7.80
2018-05-04T02:03:58.447Z,8.23
2018-05-04T02:09:02.166Z,8.73
2018-05-04T02:14:05.845Z,8.77
2018-05-04T02:19:10.197Z,9.18
2018-05-04T02:24:13.640Z,9.70
2018-05-04T02:29:16.868Z,9.30
2018-05-04T02:34:20.090Z,9.02
2018-05-04T02:39:24.430Z,9.60
2018-05-04T02:44:29.301Z,9.00
2018-05-04T02:49:33.544Z,9.40
2018-05-04T02:54:38.199Z,9.50
2018-05-04T02:59:41.588Z,9.10
2018-05-04T03:04:45.241Z,10.40
2018-05-04T03:09:49.672Z,9.77
2018-05-04T03:14:53.044Z,9.60
2018-05-04T03:19:58.163Z,9.13
2018-05-04T03:25:01.495Z,9.93
2018-05-04T03:30:04.719Z,9.48
2018-05-04T03:35:08.372Z,9.65
2018-05-04T03:40:11.586Z,9.40
2018-05-04T03:45:15.031Z,9.73
2018-05-04T03:50:19.145Z,10.02
2018-05-04T03:55:22.465Z,10.13
2018-05-04T04:00:37.471Z,9.88
2018-05-04T04:05:40.729Z,10.52
2018-05-04T04:10:44.116Z,9.32
2018-05-04T04:15:48.374Z,10.65
2018-05-04T04:20:51.623Z,10.13
2018-05-04T04:25:54.922Z,10.63
2018-05-04T04:30:58.556Z,10.98
2018-05-04T04:36:02.049Z,10.70
2018-05-04T04:41:05.744Z,10.65
2018-05-04T04:46:09.044Z,10.50
2018-05-04T04:51:12.271Z,10.80
2018-05-04T04:56:15.964Z,10.43
2018-05-04T05:01:19.304Z,11.48
2018-05-04T05:06:22.536Z,10.40
2018-05-04T05:11:25.761Z,10.75
2018-05-04T05:16:29.140Z,10.10
2018-05-04T05:21:32.907Z,9.60
2018-05-04T05:26:36.130Z,10.40
2018-05-04T05:31:39.379Z,10.95
2018-05-04T05:36:42.630Z,11.57
2018-05-04T05:41:45.885Z,10.48
2018-05-04T05:46:49.441Z,9.98
2018-05-04T05:51:52.837Z,10.85
2018-05-04T05:56:56.007Z,10.43
2018-05-04T06:01:59.254Z,10.52
2018-05-04T06:07:02.500Z,10.25
2018-05-04T06:12:06.122Z,10.82
2018-05-04T06:17:09.745Z,9.40
2018-05-04T06:22:13.519Z,9.63
2018-05-04T06:27:16.770Z,10.25
2018-05-04T06:32:20.014Z,10.35
2018-05-04T06:37:23.234Z,9.98
2018-05-04T06:42:26.480Z,10.80
2018-05-04T06:47:30.115Z,11.02
2018-05-04T06:52:33.689Z,10.40
2018-05-04T06:57:37.076Z,10.63
2018-05-04T07:02:40.293Z,10.30
2018-05-04T07:07:43.522Z,11.32
2018-05-04T07:12:47.140Z,10.05
2018-05-04T07:17:51.112Z,9.80
2018-05-04T07:22:54.355Z,11.32
2018-05-04T07:27:57.572Z,10.15
2018-05-04T07:33:00.824Z,11.25
2018-05-04T07:38:06.706Z,10.60
2018-05-04T07:43:09.970Z,11.50
2018-05-04T07:48:13.196Z,11.20
2018-05-04T07:53:16.423Z,11.12
2018-05-04T07:58:19.675Z,11.57
2018-05-04T08:03:23.290Z,11.63
2018-05-04T08:08:26.930Z,11.25
2018-05-04T08:13:30.193Z,11.95
2018-05-04T08:18:33.502Z,11.43
2018-05-04T08:23:37.122Z,11.73
2018-05-04T08:28:40.737Z,12.63
2018-05-04T08:33:44.376Z,12.07
2018-05-04T08:38:47.651Z,11.02
2018-05-04T08:43:50.921Z,11.55
2018-05-04T08:48:54.164Z,11.50
2018-05-04T08:53:57.395Z,11.75
2018-05-04T08:59:00.638Z,10.75
2018-05-04T09:04:03.914Z,10.85
2018-05-04T09:09:07.184Z,10.13
2018-05-04T09:14:10.404Z,9.55
2018-05-04T09:19:14.026Z,10.90
2018-05-04T09:24:17.644Z,9.80
2018-05-04T09:29:21.265Z,8.60
2018-05-04T09:34:24.493Z,9.02
2018-05-04T09:39:27.725Z,8.70
2018-05-04T09:44:30.942Z,9.20
2018-05-04T09:49:34.476Z,8.50
2018-05-04T09:54:38.120Z,9.40
2018-05-04T09:59:41.470Z,9.30
2018-05-04T10:04:44.818Z,9.13
2018-05-04T10:09:48.443Z,9.50
2018-05-04T10:14:52.443Z,10.00
2018-05-04T10:19:56.893Z,9.82
2018-05-04T10:25:00.538Z,9.50
2018-05-04T10:30:03.824Z,10.18
2018-05-04T10:35:07.732Z,9.20
2018-05-04T10:40:13.400Z,8.63
2018-05-04T10:45:16.619Z,9.27
2018-05-04T10:50:19.830Z,9.48
2018-05-04T10:55:23.210Z,10.35
2018-05-04T11:00:27.894Z,9.18
2018-05-04T11:05:31.583Z,8.80
2018-05-04T11:10:34.942Z,9.07
2018-05-04T11:15:38.379Z,8.98
2018-05-04T11:20:41.793Z,7.28
2018-05-04T11:25:45.407Z,7.50
2018-05-04T11:30:48.686Z,8.02
2018-05-04T11:35:51.898Z,8.25
2018-05-04T11:40:55.122Z,7.65
2018-05-04T11:45:58.860Z,9.05
2018-05-04T11:51:02.248Z,7.90
2018-05-04T11:56:06.150Z,7.82
2018-05-04T12:01:09.478Z,7.90
2018-05-04T12:06:13.095Z,7.50
2018-05-04T12:11:16.934Z,8.40
2018-05-04T12:16:20.183Z,7.97
2018-05-04T12:21:23.426Z,6.72
2018-05-04T12:26:26.735Z,7.05
2018-05-04T12:31:30.550Z,7.47
2018-05-04T12:36:33.762Z,8.10
2018-05-04T12:41:37.383Z,7.87
2018-05-04T12:46:41.012Z,8.68
2018-05-04T12:51:44.501Z,8.85
2018-05-04T12:56:48.215Z,9.43
2018-05-04T13:01:52.035Z,9.07
2018-05-04T13:06:55.288Z,9.50
2018-05-04T13:11:58.546Z,8.10
2018-05-04T13:17:01.786Z,9.10
2018-05-04T13:22:05.030Z,8.20
2018-05-04T13:27:08.247Z,9.15
2018-05-04T13:32:11.574Z,9.55
2018-05-04T13:37:14.813Z,9.43
2018-05-04T13:42:18.056Z,10.88
2018-05-04T13:47:21.308Z,9.95
2018-05-04T13:52:24.582Z,10.00
2018-05-04T13:57:27.906Z,9.40
2018-05-04T14:02:31.153Z,9.43
2018-05-04T14:07:34.431Z,10.18
2018-05-04T14:12:38.854Z,9.73
2018-05-04T14:17:42.597Z,9.82
2018-05-04T14:22:45.843Z,8.73
2018-05-04T14:27:49.100Z,8.90
2018-05-04T14:32:52.365Z,9.00
2018-05-04T14:37:55.600Z,9.65
2018-05-04T14:42:59.235Z,7.90
2018-05-04T14:48:02.505Z,8.13
2018-05-04T14:53:05.948Z,9.15
2018-05-04T14:58:09.776Z,8.00
2018-05-04T15:03:13.059Z,9.27
2018-05-04T15:08:16.876Z,8.82
2018-05-04T15:13:20.156Z,9.88
2018-05-04T15:18:23.450Z,9.00
2018-05-04T15:23:26.696Z,8.88
2018-05-04T15:28:29.942Z,8.07
2018-05-04T15:33:33.169Z,8.95
2018-05-04T15:38:36.530Z,8.85
2018-05-04T15:43:40.167Z,8.45
2018-05-04T15:48:49.023Z,8.70
2018-05-04T15:53:52.284Z,8.77
2018-05-04T15:58:55.915Z,9.02
2018-05-04T16:03:59.208Z,8.52
2018-05-04T16:09:03.012Z,8.38
2018-05-04T16:14:06.325Z,8.68
2018-05-04T16:19:10.042Z,8.82
2018-05-04T16:24:13.679Z,8.13
2018-05-04T16:29:17.591Z,7.90
2018-05-04T16:34:21.323Z,8.32
2018-05-04T16:39:24.552Z,8.77
2018-05-04T16:44:28.511Z,8.88
2018-05-04T16:49:31.761Z,8.85
2018-05-04T16:54:35.059Z,9.18
2018-05-04T16:59:38.330Z,9.38
2018-05-04T17:04:41.647Z,8.13
2018-05-04T17:09:44.941Z,9.25
2018-05-04T17:14:48.211Z,8.60
2018-05-04T17:19:51.485Z,9.02
2018-05-04T17:24:55.172Z,9.60
2018-05-04T17:29:58.448Z,9.75
2018-05-04T17:35:02.349Z,8.98
2018-05-04T17:40:05.635Z,9.30
2018-05-04T17:45:09.266Z,9.32
2018-05-04T17:50:12.551Z,9.25
2018-05-04T17:55:16.220Z,8.75
2018-05-04T18:00:19.470Z,9.20
2018-05-04T18:05:22.835Z,9.20
2018-05-04T18:10:26.072Z,8.70
2018-05-04T18:15:29.388Z,9.40
2018-05-04T18:20:32.700Z,10.48
2018-05-04T18:25:36.052Z,8.98
2018-05-04T18:30:39.544Z,9.75
2018-05-04T18:35:42.832Z,10.15
2018-05-04T18:40:46.492Z,10.10
2018-05-04T18:45:49.811Z,8.65
2018-05-04T18:50:53.276Z,8.75
2018-05-04T18:55:57.025Z,9.10
2018-05-04T19:01:00.502Z,8.70
2018-05-04T19:06:04.347Z,9.07
2018-05-04T19:11:07.735Z,9.93
2018-05-04T19:16:11.369Z,9.90
2018-05-04T19:21:14.759Z,9.95
2018-05-04T19:26:18.157Z,9.10
2018-05-04T19:31:21.420Z,10.10
2018-05-04T19:36:25.050Z,9.80
2018-05-04T19:41:28.292Z,9.63
2018-05-04T19:46:32.491Z,10.93
2018-05-04T19:51:35.724Z,10.63
2018-05-04T19:56:39.425Z,9.68
2018-05-04T20:01:43.276Z,9.05
2018-05-04T20:06:47.131Z,10.35
2018-05-04T20:11:50.794Z,10.30
2018-05-04T20:16:54.423Z,10.48
2018-05-04T20:21:57.658Z,11.20
2018-05-04T20:27:01.741Z,11.32
2018-05-04T20:32:05.255Z,10.90
2018-05-04T20:37:08.900Z,11.25
2018-05-04T20:42:12.134Z,11.57
2018-05-04T20:47:15.585Z,10.60
2018-05-04T20:52:18.860Z,11.38
2018-05-04T20:57:22.136Z,11.95
2018-05-04T21:02:25.404Z,11.88
2018-05-04T21:07:28.944Z,11.85
2018-05-04T21:12:32.476Z,11.20
2018-05-04T21:17:35.712Z,11.88
2018-05-04T21:22:39.368Z,11.93
2018-05-04T21:27:43.009Z,12.98
2018-05-04T21:32:46.410Z,11.90
2018-05-04T21:37:49.646Z,13.32
2018-05-04T21:42:52.868Z,12.10
2018-05-04T21:47:56.221Z,12.50
2018-05-04T21:52:59.607Z,11.55
2018-05-04T21:58:04.370Z,11.90
2018-05-04T22:03:07.668Z,12.48
2018-05-04T22:08:11.308Z,12.32
2018-05-04T22:13:14.573Z,11.60
2018-05-04T22:18:17.988Z,11.02
2018-05-04T22:23:21.463Z,11.77
2018-05-04T22:28:24.732Z,11.68
2018-05-04T22:33:29.652Z,10.98
2018-05-04T22:38:32.993Z,11.12
2018-05-04T22:43:36.330Z,10.88
2018-05-04T22:48:39.624Z,11.38
2018-05-04T22:53:42.882Z,12.40
2018-05-04T22:58:46.293Z,11.20
2018-05-04T23:03:50.042Z,11.20
2018-05-04T23:08:53.327Z,12.00
2018-05-04T23:13:56.580Z,12.35
2018-05-04T23:18:59.873Z,12.23
2018-05-04T23:24:03.240Z,11.80
2018-05-04T23:29:06.472Z,12.80
2018-05-04T23:34:10.792Z,12.70
2018-05-04T23:39:15.559Z,12.20
2018-05-04T23:44:18.773Z,13.05
2018-05-04T23:49:22.116Z,14.75
2018-05-04T23:54:26.438Z,12.55
